Time;durP1;ratioP1;P1;durP2;ratioP2;P2;SDS_P1;SDS_P2;PMS_P1;PMS_P2;Temp;Humidity;BMP_temperature;BMP_pressure;BME280_temperature;BME280_humidity;BME280_pressure;Samples;Min_cycle;Max_cycle;Signal;HPM_P1;HPM_P2
2023/03/03 00:00:47;;;;;;;44.72;18.30;;;;;;;3.45;100.00;101967.63;4955274;28;20055;-72
2023/03/03 00:03:18;;;;;;;37.55;15.13;;;;;;;3.45;100.00;101969.53;4951624;28;20074;-73
2023/03/03 00:05:44;;;;;;;40.50;16.83;;;;;;;3.46;100.00;101971.97;4953731;28;20050;-70
2023/03/03 00:08:11;;;;;;;37.08;15.90;;;;;;;3.42;100.00;101964.72;4953357;28;20053;-73
2023/03/03 00:10:39;;;;;;;38.08;15.38;;;;;;;3.46;100.00;101971.97;4951058;28;20812;-73
2023/03/03 00:13:14;;;;;;;42.95;16.38;;;;;;;3.47;100.00;101965.34;4951017;28;20058;-73
2023/03/03 00:15:40;;;;;;;33.53;12.20;;;;;;;3.49;100.00;101970.50;4952832;28;20568;-73
2023/03/03 00:18:17;;;;;;;39.17;16.40;;;;;;;3.52;100.00;101970.69;4951639;28;20055;-73
2023/03/03 00:20:59;;;;;;;41.90;16.55;;;;;;;3.53;100.00;101974.22;4950612;28;20062;-75
2023/03/03 00:23:38;;;;;;;47.83;18.02;;;;;;;3.48;100.00;101977.91;4950214;28;20051;-71
2023/03/03 00:26:32;;;;;;;36.60;14.77;;;;;;;3.52;100.00;101978.09;4954152;28;20083;-71
2023/03/03 00:29:00;;;;;;;44.55;18.13;;;;;;;3.58;100.00;101974.06;4950996;28;20085;-73
2023/03/03 00:31:35;;;;;;;44.25;17.63;;;;;;;3.54;100.00;101979.38;4950608;28;20075;-72
2023/03/03 00:34:17;;;;;;;38.85;15.48;;;;;;;3.49;100.00;101973.25;4952778;28;20043;-72
2023/03/03 00:36:43;;;;;;;45.60;20.25;;;;;;;3.49;100.00;101982.28;4952368;28;20054;-73
2023/03/03 00:39:30;;;;;;;35.08;13.77;;;;;;;3.46;100.00;101988.38;4949911;28;20778;-73
2023/03/03 00:41:58;;;;;;;38.75;15.75;;;;;;;3.43;100.00;101982.72;4958865;28;20062;-73
2023/03/03 00:44:37;;;;;;;34.78;15.15;;;;;;;3.42;100.00;101992.88;4959779;28;20043;-74
2023/03/03 00:47:29;;;;;;;50.45;20.52;;;;;;;3.42;100.00;101984.69;4957266;28;20054;-72
2023/03/03 00:50:28;;;;;;;42.78;18.65;;;;;;;3.38;100.00;101988.34;4948673;29;20095;-73
2023/03/03 00:53:16;;;;;;;40.28;16.80;;;;;;;3.37;100.00;101994.97;4949832;28;20055;-74
2023/03/03 00:56:01;;;;;;;42.00;16.17;;;;;;;3.38;100.00;101991.09;4948849;28;20043;-73
2023/03/03 00:58:28;;;;;;;38.92;17.05;;;;;;;3.33;100.00;101994.78;4961945;28;20057;-73
2023/03/03 01:00:57;;;;;;;40.40;18.23;;;;;;;3.34;100.00;101990.91;4957630;28;20509;-72
2023/03/03 01:03:25;;;;;;;40.20;16.08;;;;;;;3.35;100.00;101999.94;4955981;28;20057;-73
2023/03/03 01:05:53;;;;;;;43.50;18.15;;;;;;;3.34;100.00;101984.66;4955148;28;20438;-73
2023/03/03 01:08:38;;;;;;;40.17;17.25;;;;;;;3.36;100.00;101983.22;4957023;28;20061;-72
2023/03/03 01:11:25;;;;;;;40.28;17.42;;;;;;;3.38;100.00;102002.84;4949609;28;20137;-73
2023/03/03 01:13:52;;;;;;;40.55;17.33;;;;;;;3.39;100.00;101992.69;4959417;28;20501;-72
2023/03/03 01:16:19;;;;;;;43.03;17.52;;;;;;;3.41;100.00;101998.66;4961986;28;20049;-74
2023/03/03 01:18:45;;;;;;;40.67;15.90;;;;;;;3.42;100.00;101997.53;4960926;28;20055;-74
2023/03/03 01:21:12;;;;;;;39.40;17.63;;;;;;;3.36;100.00;101999.63;4959980;28;20051;-73
2023/03/03 01:23:39;;;;;;;35.20;14.75;;;;;;;3.37;100.00;101995.75;4965943;28;20065;-74
2023/03/03 01:26:05;;;;;;;45.58;17.27;;;;;;;3.37;100.00;101990.28;4951873;28;20052;-74
2023/03/03 01:28:33;;;;;;;28.33;11.50;;;;;;;3.38;100.00;101996.56;4955328;28;20436;-74
2023/03/03 01:31:01;;;;;;;31.33;13.00;;;;;;;3.41;100.00;101985.00;4956152;28;20142;-74
2023/03/03 01:33:28;;;;;;;44.13;18.73;;;;;;;3.40;100.00;101988.84;4955381;28;20427;-73
2023/03/03 01:39:00;;;;;;;45.25;18.08;;;;;;;3.31;100.00;101993.50;4951508;28;20533;-72
2023/03/03 01:41:32;;;;;;;40.63;16.52;;;;;;;3.29;100.00;101999.28;4953442;28;20070;-73
2023/03/03 01:43:59;;;;;;;47.88;19.60;;;;;;;3.30;100.00;101997.38;4953764;28;20146;-71
2023/03/03 01:46:43;;;;;;;45.17;17.95;;;;;;;3.35;100.00;101997.19;4952897;28;20081;-73
2023/03/03 01:49:18;;;;;;;46.67;18.08;;;;;;;3.40;100.00;101994.31;4947060;28;20053;-73
2023/03/03 01:51:50;;;;;;;39.00;15.63;;;;;;;3.42;100.00;101997.53;4935928;28;20065;-74
2023/03/03 01:54:24;;;;;;;15.40;4.70;;;;;;;3.39;100.00;101992.69;4952637;28;20133;-73
2023/03/03 01:56:56;;;;;;;41.90;14.65;;;;;;;3.34;100.00;101981.91;4958196;28;20059;-74
2023/03/03 01:59:28;;;;;;;45.35;17.80;;;;;;;3.37;100.00;101987.53;4970326;28;20051;-73
2023/03/03 02:01:54;;;;;;;46.08;17.05;;;;;;;3.40;100.00;101983.34;4959196;28;20521;-73
2023/03/03 02:04:21;;;;;;;51.53;22.02;;;;;;;3.25;100.00;101959.19;4958641;28;20066;-74
2023/03/03 02:06:56;;;;;;;43.00;16.58;;;;;;;3.30;100.00;101980.94;4964997;28;20134;-73
2023/03/03 02:09:42;;;;;;;41.97;18.33;;;;;;;3.23;100.00;101989.59;4951585;28;20057;-72
2023/03/03 02:12:12;;;;;;;46.97;18.80;;;;;;;3.24;100.00;101980.25;4957013;28;20059;-73
2023/03/03 02:14:39;;;;;;;43.42;18.95;;;;;;;3.28;100.00;101978.53;4957663;28;20069;-69
2023/03/03 02:17:05;;;;;;;51.22;19.33;;;;;;;3.30;100.00;101972.75;4958266;28;20485;-73
2023/03/03 02:19:48;;;;;;;44.50;17.05;;;;;;;3.28;100.00;101970.31;4957604;28;20054;-73
2023/03/03 02:22:20;;;;;;;40.35;16.35;;;;;;;3.30;100.00;101983.69;4960146;28;20051;-73
2023/03/03 02:24:52;;;;;;;37.90;15.48;;;;;;;3.26;100.00;101983.50;4956074;28;20047;-72
2023/03/03 02:27:18;;;;;;;41.53;16.90;;;;;;;3.24;100.00;101991.22;4954065;28;20055;-74
2023/03/03 02:29:45;;;;;;;48.40;19.20;;;;;;;3.26;100.00;101994.44;4958787;28;20073;-74
2023/03/03 02:32:11;;;;;;;49.67;17.98;;;;;;;3.26;100.00;101994.44;4951970;28;20603;-72
2023/03/03 02:34:49;;;;;;;46.38;19.27;;;;;;;3.30;100.00;101997.38;4959777;28;20054;-73
2023/03/03 02:37:17;;;;;;;45.85;16.50;;;;;;;3.23;100.00;101981.41;4953186;28;20055;-74
2023/03/03 02:39:43;;;;;;;47.55;17.48;;;;;;;3.23;100.00;101986.88;4941270;28;20050;-74
2023/03/03 02:42:16;;;;;;;45.00;17.20;;;;;;;3.23;100.00;101994.25;4954566;28;20046;-73
2023/03/03 02:44:42;;;;;;;43.67;16.67;;;;;;;3.26;100.00;101982.69;4950452;28;20054;-72
2023/03/03 02:47:09;;;;;;;43.42;18.30;;;;;;;3.22;100.00;101978.97;4954854;28;20061;-74
2023/03/03 02:49:36;;;;;;;30.63;12.35;;;;;;;3.18;100.00;101969.81;4958235;28;20066;-73
2023/03/03 02:52:06;;;;;;;42.53;15.57;;;;;;;3.19;100.00;101977.69;4950944;28;20051;-73
2023/03/03 02:54:32;;;;;;;31.27;11.93;;;;;;;3.16;100.00;101982.97;4955337;28;20051;-73
2023/03/03 02:56:59;;;;;;;30.60;11.85;;;;;;;3.15;100.00;101984.94;4952799;28;20515;-73
2023/03/03 02:59:27;;;;;;;38.55;16.40;;;;;;;3.10;100.00;101979.59;4950573;28;20727;-73
2023/03/03 03:01:53;;;;;;;46.13;18.15;;;;;;;3.07;100.00;101993.88;4949366;28;20573;-73
2023/03/03 03:04:22;;;;;;;42.90;17.65;;;;;;;3.02;100.00;101988.56;4952211;28;20165;-73
2023/03/03 03:06:50;;;;;;;40.47;15.73;;;;;;;2.98;100.00;101989.50;4951653;28;20453;-73
2023/03/03 03:09:18;;;;;;;43.17;14.63;;;;;;;2.95;100.00;101987.41;4951337;28;20051;-73
2023/03/03 03:11:44;;;;;;;40.15;15.98;;;;;;;2.98;100.00;101984.88;4935022;28;20051;-73
2023/03/03 03:14:12;;;;;;;35.60;13.93;;;;;;;3.03;100.00;101995.66;4956086;28;20058;-73
2023/03/03 03:16:39;;;;;;;38.47;13.95;;;;;;;3.02;100.00;101995.97;4959083;28;20051;-73
2023/03/03 03:19:07;;;;;;;33.03;12.98;;;;;;;2.97;100.00;101985.97;4959535;28;20082;-72
2023/03/03 03:21:33;;;;;;;37.63;12.82;;;;;;;2.94;100.00;101992.09;4959995;28;20047;-73
2023/03/03 03:24:38;;;;;;;29.42;9.05;;;;;;;2.91;100.00;101991.91;4964189;28;20051;-74
2023/03/03 03:27:09;;;;;;;34.33;12.50;;;;;;;2.90;100.00;101998.50;4956129;28;20047;-73
2023/03/03 03:30:08;;;;;;;36.97;14.55;;;;;;;2.87;100.00;101999.91;4957224;28;20417;-74
2023/03/03 03:32:56;;;;;;;39.42;15.80;;;;;;;2.88;100.00;102004.28;4954084;28;20055;-73
2023/03/03 03:35:22;;;;;;;38.72;14.35;;;;;;;2.89;100.00;102005.88;4948105;28;20043;-72
2023/03/03 03:37:49;;;;;;;36.85;13.60;;;;;;;2.81;100.00;102003.94;4957712;28;20078;-72
2023/03/03 03:40:15;;;;;;;34.20;13.10;;;;;;;2.78;100.00;102011.94;4954532;28;20058;-74
2023/03/03 03:42:48;;;;;;;41.50;15.70;;;;;;;2.70;100.00;102021.69;4954487;28;20055;-74
2023/03/03 03:45:14;;;;;;;36.65;15.13;;;;;;;2.68;100.00;102016.56;4955215;28;20043;-72
2023/03/03 03:47:41;;;;;;;42.40;16.90;;;;;;;2.64;100.00;102012.03;4954636;28;20295;-72
2023/03/03 03:50:09;;;;;;;36.47;15.70;;;;;;;2.63;100.00;102018.59;4957596;28;20058;-70
2023/03/03 03:52:35;;;;;;;45.70;17.10;;;;;;;2.66;100.00;102023.44;4957326;28;20163;-73
2023/03/03 03:55:02;;;;;;;42.72;16.67;;;;;;;2.68;100.00;102018.47;4956365;28;20897;-74
2023/03/03 03:57:29;;;;;;;37.17;14.60;;;;;;;2.72;100.00;102024.94;4952603;28;20062;-69
2023/03/03 03:59:56;;;;;;;43.22;15.90;;;;;;;2.70;100.00;102029.88;4941166;28;20046;-71
2023/03/03 04:02:22;;;;;;;34.15;14.88;;;;;;;2.73;100.00;102027.34;4953332;28;20055;-72
2023/03/03 04:04:49;;;;;;;43.85;16.88;;;;;;;2.77;100.00;102029.47;4955123;28;20078;-72
2023/03/03 04:07:16;;;;;;;40.83;15.48;;;;;;;2.77;100.00;102024.81;4948622;29;20489;-70
2023/03/03 04:09:42;;;;;;;42.75;16.00;;;;;;;2.73;100.00;102023.81;4949039;28;20043;-72
2023/03/03 04:12:08;;;;;;;46.95;18.15;;;;;;;2.72;100.00;102030.41;4951807;28;20382;-72
2023/03/03 04:14:35;;;;;;;43.45;16.77;;;;;;;2.76;100.00;102025.91;4952843;28;20781;-72
2023/03/03 04:17:01;;;;;;;42.60;16.75;;;;;;;2.77;100.00;102024.00;4951859;28;20051;-71
2023/03/03 04:19:28;;;;;;;38.10;15.35;;;;;;;2.74;100.00;102015.28;4952576;28;20050;-71
2023/03/03 04:21:54;;;;;;;46.30;17.70;;;;;;;2.77;100.00;102024.00;4951683;28;20456;-71
2023/03/03 04:24:21;;;;;;;50.03;17.40;;;;;;;2.73;100.00;102016.41;4956615;28;20044;-72
2023/03/03 04:26:47;;;;;;;50.80;17.48;;;;;;;2.71;100.00;102024.09;4950517;28;20083;-71
2023/03/03 04:29:14;;;;;;;50.95;17.17;;;;;;;2.76;100.00;102023.19;4949722;28;20066;-72
2023/03/03 04:31:40;;;;;;;48.03;17.65;;;;;;;2.76;100.00;102023.19;4950373;28;20059;-71
2023/03/03 04:34:07;;;;;;;47.30;17.45;;;;;;;2.74;100.00;102026.22;4956187;28;20047;-72
2023/03/03 04:36:33;;;;;;;49.90;19.70;;;;;;;2.73;100.00;102032.00;4950112;28;20047;-73
2023/03/03 04:39:00;;;;;;;47.72;18.25;;;;;;;2.71;100.00;102031.53;4951019;28;20059;-72
2023/03/03 04:41:26;;;;;;;54.95;18.50;;;;;;;2.74;100.00;102031.69;4959399;28;20073;-73
2023/03/03 04:43:53;;;;;;;52.25;19.38;;;;;;;2.76;100.00;102030.59;4957504;28;20381;-74
2023/03/03 04:46:19;;;;;;;54.40;20.42;;;;;;;2.76;100.00;102023.19;4948985;28;20046;-73
2023/03/03 04:48:46;;;;;;;56.72;19.58;;;;;;;2.76;100.00;102022.38;4966635;28;20117;-73
2023/03/03 04:51:13;;;;;;;38.05;12.95;;;;;;;2.72;100.00;102023.00;4958690;28;20055;-73
2023/03/03 04:53:40;;;;;;;56.00;20.70;;;;;;;2.72;100.00;102019.47;4956023;28;20465;-74
2023/03/03 04:56:07;;;;;;;56.17;18.75;;;;;;;2.72;100.00;102024.94;4962119;28;20047;-73
2023/03/03 04:58:33;;;;;;;46.20;12.30;;;;;;;2.72;100.00;102028.47;4947129;28;20046;-72
2023/03/03 05:01:00;;;;;;;53.67;19.83;;;;;;;2.71;100.00;102021.38;4953148;28;20055;-74
2023/03/03 05:03:26;;;;;;;58.22;20.10;;;;;;;2.72;100.00;102024.94;4961124;28;20531;-72
2023/03/03 05:05:53;;;;;;;54.67;19.58;;;;;;;2.73;100.00;102024.63;4961884;28;20077;-72
2023/03/03 05:08:20;;;;;;;54.63;19.45;;;;;;;2.68;100.00;102015.75;4955528;28;20063;-71
2023/03/03 05:10:50;;;;;;;48.47;18.35;;;;;;;2.67;100.00;102022.34;4953432;28;20137;-71
2023/03/03 05:13:17;;;;;;;64.70;20.63;;;;;;;2.68;100.00;102021.22;4953023;28;20051;-71
2023/03/03 05:15:51;;;;;;;69.57;22.70;;;;;;;2.74;100.00;102028.97;4956564;28;20074;-72
2023/03/03 05:18:18;;;;;;;53.65;20.45;;;;;;;2.73;100.00;102030.09;4938996;29;20135;-72
2023/03/03 05:20:54;;;;;;;51.47;20.13;;;;;;;2.73;100.00;102026.53;4953696;28;20437;-72
2023/03/03 05:23:27;;;;;;;55.50;20.00;;;;;;;2.70;100.00;102021.69;4957956;28;20505;-73
2023/03/03 05:25:54;;;;;;;58.58;20.27;;;;;;;2.70;100.00;102032.63;4954771;28;20568;-73
2023/03/03 05:28:21;;;;;;;54.88;20.10;;;;;;;2.77;100.00;102034.94;4954785;28;20043;-73
2023/03/03 05:30:47;;;;;;;55.08;18.40;;;;;;;2.75;100.00;102037.97;4953738;28;20426;-72
2023/03/03 05:33:17;;;;;;;51.42;18.48;;;;;;;2.76;100.00;102028.63;4947293;28;20070;-73
2023/03/03 05:36:02;;;;;;;57.47;21.13;;;;;;;2.78;100.00;102029.16;4954216;28;20043;-73
2023/03/03 05:38:29;;;;;;;58.63;22.33;;;;;;;2.76;100.00;102030.59;4937909;29;20065;-71
2023/03/03 05:40:55;;;;;;;60.40;21.38;;;;;;;2.79;100.00;102030.75;4953616;28;20583;-73
2023/03/03 05:43:22;;;;;;;59.97;21.30;;;;;;;2.81;100.00;102028.53;4952645;28;20050;-72
2023/03/03 05:45:54;;;;;;;55.38;21.77;;;;;;;2.83;100.00;102033.69;4952529;28;20054;-72
2023/03/03 05:48:20;;;;;;;64.07;20.38;;;;;;;2.86;100.00;102033.06;4952494;28;20517;-72
2023/03/03 05:50:59;;;;;;;56.80;19.73;;;;;;;2.82;100.00;102029.31;4936650;28;20055;-72
2023/03/03 05:53:43;;;;;;;45.72;15.90;;;;;;;2.73;100.00;102024.63;4964833;28;20073;-71
2023/03/03 05:56:24;;;;;;;60.90;20.98;;;;;;;2.76;100.00;102025.91;4952118;28;20083;-73
2023/03/03 05:59:02;;;;;;;53.60;18.60;;;;;;;2.77;100.00;102035.75;4952296;28;20054;-73
2023/03/03 06:01:29;;;;;;;61.75;20.63;;;;;;;2.80;100.00;102035.09;4954762;28;20445;-72
2023/03/03 06:04:13;;;;;;;59.10;20.67;;;;;;;2.81;100.00;102044.09;4959303;28;20055;-72
2023/03/03 06:06:40;;;;;;;63.25;20.90;;;;;;;2.81;100.00;102041.38;4963074;28;20430;-72
2023/03/03 06:09:06;;;;;;;68.53;22.85;;;;;;;2.81;100.00;102042.19;4961641;28;20070;-72
2023/03/03 06:11:33;;;;;;;66.30;21.60;;;;;;;2.88;100.00;102047.19;4964668;28;20055;-72
2023/03/03 06:13:59;;;;;;;63.60;21.85;;;;;;;2.90;100.00;102050.44;4959560;28;20059;-72
2023/03/03 06:16:26;;;;;;;57.03;20.00;;;;;;;2.87;100.00;102040.91;4955370;28;20096;-73
2023/03/03 06:18:52;;;;;;;63.30;21.67;;;;;;;2.86;100.00;102039.31;4958149;28;20047;-73
2023/03/03 06:21:19;;;;;;;61.65;21.55;;;;;;;2.86;100.00;102058.44;4955895;28;20051;-73
2023/03/03 06:23:45;;;;;;;62.80;21.25;;;;;;;2.87;100.00;102060.06;4957030;28;20067;-72
2023/03/03 06:26:12;;;;;;;69.47;23.83;;;;;;;2.86;100.00;102061.19;4960564;28;20043;-72
2023/03/03 06:28:38;;;;;;;60.63;20.17;;;;;;;2.87;100.00;102065.53;4957041;28;20142;-72
2023/03/03 06:31:05;;;;;;;56.97;20.33;;;;;;;2.83;100.00;102066.47;4948805;28;20055;-72
2023/03/03 06:33:31;;;;;;;62.13;21.83;;;;;;;2.83;100.00;102069.22;4944082;28;20051;-72
2023/03/03 06:35:58;;;;;;;66.60;22.15;;;;;;;2.84;100.00;102074.38;4959900;28;20051;-72
2023/03/03 06:38:24;;;;;;;60.10;20.38;;;;;;;2.85;100.00;102067.78;4958473;28;20051;-72
2023/03/03 06:40:51;;;;;;;62.35;23.73;;;;;;;2.91;100.00;102072.00;4957695;28;20047;-71
2023/03/03 06:43:17;;;;;;;58.92;19.30;;;;;;;2.91;100.00;102076.66;4955084;28;20058;-73
2023/03/03 06:49:16;;;;;;;60.03;20.85;;;;;;;2.99;100.00;102079.44;4938375;28;20050;-73
2023/03/03 06:51:45;;;;;;;59.42;19.80;;;;;;;3.00;100.00;102083.78;4954679;28;20058;-72
2023/03/03 06:54:26;;;;;;;57.55;18.85;;;;;;;3.01;100.00;102085.41;4955600;28;20053;-73
2023/03/03 06:57:04;;;;;;;41.43;13.70;;;;;;;3.02;100.00;102092.47;4954359;28;20852;-73
2023/03/03 06:59:30;;;;;;;54.70;19.23;;;;;;;3.06;100.00;102084.44;4956397;28;20063;-72
2023/03/03 07:01:57;;;;;;;59.75;21.90;;;;;;;3.02;100.00;102084.28;4956416;28;20528;-72
2023/03/03 07:04:29;;;;;;;63.72;20.77;;;;;;;3.03;100.00;102094.09;4951179;28;20053;-72
2023/03/03 07:06:59;;;;;;;63.25;20.20;;;;;;;3.06;100.00;102092.66;4942120;28;20039;-73
2023/03/03 07:09:29;;;;;;;52.05;18.45;;;;;;;3.06;100.00;102087.16;4936085;28;20050;-73
2023/03/03 07:12:17;;;;;;;56.88;21.20;;;;;;;3.09;100.00;102097.50;4952119;28;20051;-72
2023/03/03 07:14:54;;;;;;;60.30;20.98;;;;;;;3.10;100.00;102099.91;4951478;28;20047;-72
2023/03/03 07:17:23;;;;;;;65.30;19.48;;;;;;;3.15;100.00;102108.00;4953500;28;20051;-72
2023/03/03 07:19:50;;;;;;;61.33;19.55;;;;;;;3.18;100.00;102103.81;4950858;28;20082;-71
2023/03/03 07:22:24;;;;;;;64.07;20.05;;;;;;;3.15;100.00;102108.00;4951892;28;20054;-72
2023/03/03 07:24:55;;;;;;;56.38;18.25;;;;;;;3.13;100.00;102112.97;4948480;29;20051;-71
2023/03/03 07:27:29;;;;;;;61.33;19.23;;;;;;;3.11;100.00;102112.50;4951186;29;20047;-72
2023/03/03 07:30:26;;;;;;;51.58;18.80;;;;;;;3.09;100.00;102113.91;4949882;28;20050;-72
2023/03/03 07:32:57;;;;;;;69.72;21.65;;;;;;;3.08;100.00;102113.09;4944330;28;20051;-72
2023/03/03 07:35:39;;;;;;;70.15;23.77;;;;;;;3.08;100.00;102115.03;4952619;28;20047;-72
2023/03/03 07:38:23;;;;;;;62.05;19.48;;;;;;;3.13;100.00;102121.16;4949051;28;20127;-73
2023/03/03 07:40:54;;;;;;;67.07;22.17;;;;;;;3.13;100.00;102114.91;4951021;28;20473;-72
2023/03/03 07:43:36;;;;;;;66.38;19.10;;;;;;;3.14;100.00;102128.25;4950654;28;20089;-73
2023/03/03 07:46:09;;;;;;;58.70;19.45;;;;;;;3.17;100.00;102124.88;4950564;28;20057;-72
2023/03/03 07:48:41;;;;;;;47.90;14.68;;;;;;;3.19;100.00;102130.88;4950343;28;20051;-73
2023/03/03 07:51:18;;;;;;;53.05;17.98;;;;;;;3.15;100.00;102137.25;4945271;28;20149;-72
2023/03/03 07:53:46;;;;;;;56.75;18.15;;;;;;;3.13;100.00;102143.03;4934064;28;20065;-72
2023/03/03 07:56:19;;;;;;;54.20;18.58;;;;;;;3.16;100.00;102145.16;4950113;28;20498;-72
2023/03/03 07:58:46;;;;;;;57.78;17.77;;;;;;;3.16;100.00;102139.69;4949969;29;20051;-72
2023/03/03 08:01:27;;;;;;;52.28;18.45;;;;;;;3.20;100.00;102153.56;4949955;29;20454;-72
2023/03/03 08:03:55;;;;;;;54.65;18.38;;;;;;;3.20;100.00;102148.88;4952281;28;20065;-72
2023/03/03 08:06:31;;;;;;;48.58;17.45;;;;;;;3.22;100.00;102154.84;4949551;28;20441;-72
2023/03/03 08:09:17;;;;;;;56.95;17.52;;;;;;;3.22;100.00;102160.31;4946113;28;20066;-73
2023/03/03 08:12:13;;;;;;;48.05;17.05;;;;;;;3.24;100.00;102160.00;4948368;29;20066;-72
2023/03/03 08:14:39;;;;;;;61.13;18.33;;;;;;;3.26;100.00;102166.78;4937320;28;20513;-73
2023/03/03 08:17:16;;;;;;;58.85;19.80;;;;;;;3.28;100.00;102163.72;4940610;28;20058;-73
2023/03/03 08:19:43;;;;;;;46.95;15.73;;;;;;;3.29;100.00;102162.59;4949557;28;20520;-74
2023/03/03 08:22:15;;;;;;;52.20;17.45;;;;;;;3.32;100.00;102165.53;4953596;28;20121;-73
2023/03/03 08:24:41;;;;;;;54.78;16.48;;;;;;;3.37;100.00;102162.66;4951000;28;20055;-72
2023/03/03 08:27:08;;;;;;;60.90;17.55;;;;;;;3.35;100.00;102173.13;4950840;28;20047;-70
2023/03/03 08:29:34;;;;;;;58.00;18.40;;;;;;;3.39;100.00;102174.09;4949151;28;20085;-72
2023/03/03 08:32:01;;;;;;;52.47;18.58;;;;;;;3.40;100.00;102175.72;4948346;28;20054;-71
2023/03/03 08:34:28;;;;;;;54.20;17.10;;;;;;;3.40;100.00;102180.34;4950347;28;20438;-70
2023/03/03 08:36:57;;;;;;;64.35;25.30;;;;;;;3.39;100.00;102170.53;4955738;28;20058;-71
2023/03/03 08:39:23;;;;;;;51.67;17.65;;;;;;;3.42;100.00;102178.13;4953921;28;20051;-71
2023/03/03 08:41:50;;;;;;;51.00;18.17;;;;;;;3.42;100.00;102173.47;4953711;28;20420;-71
2023/03/03 08:44:16;;;;;;;51.13;16.67;;;;;;;3.45;100.00;102186.53;4949490;28;20058;-69
2023/03/03 08:46:43;;;;;;;49.60;16.33;;;;;;;3.43;100.00;102183.28;4954366;28;20532;-71
2023/03/03 08:49:09;;;;;;;53.25;16.35;;;;;;;3.44;100.00;102182.16;4953720;28;20506;-71
2023/03/03 08:51:36;;;;;;;47.83;15.48;;;;;;;3.42;100.00;102181.69;4949191;28;20130;-71
2023/03/03 08:54:03;;;;;;;50.53;16.00;;;;;;;3.46;100.00;102185.41;4953720;28;20043;-71
2023/03/03 08:56:29;;;;;;;47.20;14.45;;;;;;;3.51;100.00;102187.19;4956455;28;20502;-72
2023/03/03 08:58:55;;;;;;;31.98;9.18;;;;;;;3.56;100.00;102192.53;4937021;29;20055;-71
2023/03/03 09:01:29;;;;;;;38.75;13.70;;;;;;;3.57;100.00;102197.69;4957793;28;20055;-71
2023/03/03 09:03:56;;;;;;;47.42;13.05;;;;;;;3.55;100.00;102194.47;4952912;28;20047;-71
2023/03/03 09:06:23;;;;;;;43.70;14.43;;;;;;;3.62;100.00;102194.81;4954524;28;20054;-70
2023/03/03 09:08:49;;;;;;;42.20;11.25;;;;;;;3.60;100.00;102188.84;4949144;28;20058;-71
2023/03/03 09:11:23;;;;;;;35.08;10.98;;;;;;;3.62;100.00;102205.78;4954862;28;20051;-71
2023/03/03 09:13:52;;;;;;;36.08;11.55;;;;;;;3.59;100.00;102200.94;4950145;28;20055;-71
2023/03/03 09:16:21;;;;;;;39.67;14.30;;;;;;;3.66;100.00;102203.19;4949198;28;20106;-71
2023/03/03 09:18:47;;;;;;;44.08;13.95;;;;;;;3.64;100.00;102209.00;4949756;28;20074;-71
2023/03/03 09:21:27;;;;;;;34.75;12.18;;;;;;;3.64;100.00;102209.00;4951502;28;20047;-73
2023/03/03 09:24:00;;;;;;;32.97;12.30;;;;;;;3.65;100.00;102205.13;4950784;28;20146;-72
2023/03/03 09:26:28;;;;;;;34.47;10.27;;;;;;;3.71;100.00;102209.34;4953310;28;20043;-71
2023/03/03 09:29:13;;;;;;;40.38;12.10;;;;;;;3.72;100.00;102210.97;4950318;28;20055;-72
2023/03/03 09:31:44;;;;;;;28.67;7.00;;;;;;;3.75;100.00;102215.00;4936126;28;20532;-71
2023/03/03 09:34:35;;;;;;;41.47;13.88;;;;;;;3.73;100.00;102207.09;4946291;28;20055;-70
2023/03/03 09:37:27;;;;;;;43.40;12.82;;;;;;;3.81;100.00;102208.28;4947865;28;20558;-71
2023/03/03 09:39:56;;;;;;;41.05;12.75;;;;;;;3.82;100.00;102210.69;4942174;28;20142;-72
2023/03/03 09:42:28;;;;;;;34.08;11.20;;;;;;;3.81;100.00;102209.06;4948671;28;20758;-71
2023/03/03 09:45:16;;;;;;;31.17;8.98;;;;;;;3.88;100.00;102214.09;4948316;28;20043;-72
2023/03/03 09:48:17;;;;;;;31.40;8.38;;;;;;;3.91;100.00;102217.00;4948315;28;20179;-70
2023/03/03 09:51:02;;;;;;;38.50;12.45;;;;;;;3.95;100.00;102217.19;4947441;28;20053;-72
2023/03/03 09:53:50;;;;;;;37.78;11.20;;;;;;;3.99;100.00;102216.25;4949011;28;20516;-71
2023/03/03 09:56:22;;;;;;;37.50;11.68;;;;;;;4.08;100.00;102219.78;4946734;28;20054;-71
2023/03/03 09:59:41;;;;;;;41.85;13.43;;;;;;;4.13;100.00;102227.06;4946249;28;20071;-71
2023/03/03 10:02:34;;;;;;;41.60;12.90;;;;;;;4.16;100.00;102224.50;4948116;28;20043;-71
2023/03/03 10:05:10;;;;;;;27.58;7.85;;;;;;;4.24;100.00;102226.47;4947007;28;20518;-72
2023/03/03 10:07:45;;;;;;;36.70;12.77;;;;;;;4.30;100.00;102233.41;4941973;28;20078;-71
2023/03/03 10:10:34;;;;;;;37.17;10.93;;;;;;;4.32;100.00;102235.84;4943517;28;21412;-71
2023/03/03 10:13:18;;;;;;;38.83;12.30;;;;;;;4.34;100.00;102231.66;4945147;28;20057;-72
2023/03/03 10:16:16;;;;;;;38.72;12.80;;;;;;;4.38;100.00;102232.63;4944611;28;20059;-70
2023/03/03 10:18:59;;;;;;;34.30;11.02;;;;;;;4.36;100.00;102232.13;4948327;28;20047;-70
2023/03/03 10:21:38;;;;;;;35.63;12.73;;;;;;;4.39;100.00;102236.19;4944258;28;20059;-72
2023/03/03 10:24:36;;;;;;;40.38;13.60;;;;;;;4.37;100.00;102244.72;4947457;28;20066;-71
2023/03/03 10:27:35;;;;;;;32.95;11.85;;;;;;;4.30;100.00;102238.91;4904863;28;20055;-71
2023/03/03 10:30:33;;;;;;;41.25;12.25;;;;;;;4.29;100.00;102253.69;4949350;28;20557;-70
2023/03/03 10:33:25;;;;;;;31.98;11.15;;;;;;;4.31;100.00;102253.38;4948030;28;20090;-72
2023/03/03 10:36:29;;;;;;;33.78;11.80;;;;;;;4.29;100.00;102250.97;4947712;28;20560;-73
2023/03/03 10:39:33;;;;;;;36.70;11.13;;;;;;;4.33;100.00;102251.16;4944727;28;20061;-73
2023/03/03 10:42:15;;;;;;;31.83;10.77;;;;;;;4.33;100.00;102249.22;4944182;28;20055;-70
2023/03/03 10:44:57;;;;;;;38.72;12.40;;;;;;;4.38;100.00;102249.06;4945246;28;20054;-70
2023/03/03 10:47:45;;;;;;;34.05;12.20;;;;;;;4.45;100.00;102256.81;4945240;28;20043;-71
2023/03/03 10:50:54;;;;;;;42.55;14.45;;;;;;;4.48;100.00;102253.44;4937901;28;20516;-70
2023/03/03 10:53:30;;;;;;;27.85;10.07;;;;;;;4.54;100.00;102244.75;4940394;28;20042;-72
2023/03/03 10:56:00;;;;;;;34.00;9.82;;;;;;;4.57;100.00;102248.78;4947131;28;20055;-72
2023/03/03 10:58:29;;;;;;;39.33;14.27;;;;;;;4.54;100.00;102250.22;4947937;28;20053;-71
2023/03/03 11:01:44;;;;;;;33.08;11.50;;;;;;;4.52;100.00;102244.25;4948030;28;20144;-70
2023/03/03 11:04:32;;;;;;;39.55;14.23;;;;;;;4.59;100.00;102246.53;4936408;28;20062;-70
2023/03/03 11:07:46;;;;;;;42.75;13.65;;;;;;;4.66;100.00;102246.88;4938177;28;20047;-72
2023/03/03 11:10:34;;;;;;;38.00;12.15;;;;;;;4.77;100.00;102248.97;4866781;29;20188;-70
2023/03/03 11:13:31;;;;;;;36.33;11.57;;;;;;;4.76;100.00;102236.38;4943216;28;20047;-71
2023/03/03 11:16:33;;;;;;;35.55;12.57;;;;;;;4.87;100.00;102243.16;4942201;28;20513;-71
2023/03/03 11:19:10;;;;;;;42.97;13.75;;;;;;;4.95;100.00;102245.09;4911171;28;20055;-72
2023/03/03 11:21:45;;;;;;;37.25;11.68;;;;;;;4.91;100.00;102238.66;4944554;28;20055;-71
2023/03/03 11:24:18;;;;;;;38.83;12.65;;;;;;;4.96;100.00;102246.72;4945263;28;20062;-72
2023/03/03 11:26:50;;;;;;;38.78;11.20;;;;;;;5.01;100.00;102240.25;4943699;28;20051;-71
2023/03/03 11:29:20;;;;;;;35.92;12.27;;;;;;;5.03;100.00;102238.00;4945302;28;20047;-71
2023/03/03 11:31:56;;;;;;;36.17;12.15;;;;;;;5.00;100.00;102225.72;4944600;28;20788;-71
2023/03/03 11:34:46;;;;;;;35.25;13.15;;;;;;;5.08;100.00;102235.91;4945667;28;20051;-72
2023/03/03 11:38:08;;;;;;;37.45;12.77;;;;;;;5.13;100.00;102227.50;4937422;28;20058;-73
2023/03/03 11:40:48;;;;;;;43.25;13.48;;;;;;;5.12;100.00;102231.38;4920400;28;20502;-72
2023/03/03 11:43:24;;;;;;;43.50;12.43;;;;;;;5.00;100.00;102231.22;4945300;28;20058;-72
2023/03/03 11:46:10;;;;;;;31.17;10.65;;;;;;;4.99;100.00;102228.78;4944202;28;20585;-72